createdAt,value
2022-11-16T00:02:23.431Z,73.93
2022-11-16T00:05:28.683Z,70.25
2022-11-16T00:08:37.520Z,78.75
2022-11-16T00:11:42.448Z,80.55
2022-11-16T00:14:47.788Z,74.07
2022-11-16T00:17:52.914Z,73.60
2022-11-16T00:20:58.234Z,70.57
2022-11-16T00:24:04.129Z,68.40
2022-11-16T00:27:08.795Z,72.45
2022-11-16T00:30:13.858Z,70.60
2022-11-16T00:33:18.819Z,69.63
2022-11-16T00:36:23.668Z,71.80
2022-11-16T00:39:28.473Z,71.30
2022-11-16T00:42:33.457Z,71.22
2022-11-16T00:45:39.772Z,75.90
2022-11-16T00:48:44.387Z,75.10
2022-11-16T00:51:49.104Z,77.13
2022-11-16T00:54:54.140Z,79.78
2022-11-16T00:57:59.422Z,71.47
2022-11-16T01:01:09.710Z,63.35
2022-11-16T01:04:14.808Z,68.70
2022-11-16T01:07:20.966Z,73.93
2022-11-16T01:10:27.384Z,66.90
2022-11-16T01:13:32.410Z,64.13
2022-11-16T01:16:37.561Z,66.93
2022-11-16T01:19:42.240Z,71.43
2022-11-16T01:22:47.515Z,52.20
2022-11-16T01:26:01.756Z,54.13
2022-11-16T01:29:08.513Z,47.47
2022-11-16T01:32:18.336Z,43.63
2022-11-16T01:35:23.938Z,44.95
2022-11-16T01:38:30.155Z,44.90
2022-11-16T01:41:35.957Z,51.60
2022-11-16T01:44:43.108Z,53.63
2022-11-16T01:47:53.751Z,47.20
2022-11-16T01:51:01.950Z,53.88
2022-11-16T01:54:11.257Z,63.30
2022-11-16T01:57:26.170Z,64.47
2022-11-16T02:00:42.447Z,51.92
2022-11-16T02:04:11.742Z,45.45
2022-11-16T02:08:12.117Z,41.22
2022-11-16T02:11:44.369Z,45.03
2022-11-16T02:15:22.836Z,49.63
2022-11-16T02:18:52.109Z,62.45
2022-11-16T02:22:07.326Z,57.25
2022-11-16T02:25:31.392Z,58.05
2022-11-16T02:29:29.287Z,53.20
2022-11-16T02:32:50.268Z,65.72
2022-11-16T02:35:57.162Z,61.45
2022-11-16T02:39:06.485Z,55.47
2022-11-16T02:42:21.798Z,57.45
2022-11-16T02:45:31.037Z,53.13
2022-11-16T02:48:40.368Z,54.70
2022-11-16T02:51:49.344Z,52.17
2022-11-16T02:54:54.290Z,54.08
2022-11-16T02:58:02.165Z,55.08
2022-11-16T03:01:13.579Z,58.63
2022-11-16T03:04:26.915Z,60.97
2022-11-16T03:08:06.868Z,56.63
2022-11-16T03:11:30.874Z,55.90
2022-11-16T03:14:43.091Z,47.13
2022-11-16T03:17:50.440Z,51.60
2022-11-16T03:21:06.486Z,39.17
2022-11-16T03:24:11.214Z,35.15
2022-11-16T03:27:37.552Z,40.40
2022-11-16T03:30:51.014Z,37.00
2022-11-16T03:34:00.881Z,35.67
2022-11-16T03:37:06.591Z,42.13
2022-11-16T03:40:14.706Z,39.03
2022-11-16T03:43:20.556Z,38.78
2022-11-16T03:46:26.199Z,45.50
2022-11-16T03:49:31.489Z,39.45
2022-11-16T03:52:36.961Z,39.95
2022-11-16T03:55:47.027Z,41.65
2022-11-16T03:58:54.522Z,45.30
2022-11-16T04:01:59.596Z,44.53
2022-11-16T04:05:23.832Z,36.05
2022-11-16T04:08:47.358Z,44.28
2022-11-16T04:12:11.335Z,40.88
2022-11-16T04:15:35.091Z,45.25
2022-11-16T04:18:58.249Z,44.33
2022-11-16T04:22:25.178Z,43.55
2022-11-16T04:25:35.199Z,49.63
2022-11-16T04:28:40.588Z,48.50
2022-11-16T04:32:04.329Z,52.22
2022-11-16T04:35:28.273Z,50.78
2022-11-16T04:38:34.586Z,45.75
2022-11-16T04:41:59.740Z,50.30
2022-11-16T04:45:27.187Z,55.90
2022-11-16T04:48:32.757Z,58.55
2022-11-16T04:51:37.680Z,59.25
2022-11-16T04:54:42.896Z,52.95
2022-11-16T04:57:48.333Z,55.58
2022-11-16T05:00:54.433Z,49.08
2022-11-16T05:04:00.319Z,47.92
2022-11-16T05:07:11.772Z,49.33
2022-11-16T05:10:18.965Z,51.30
2022-11-16T05:13:24.245Z,50.92
2022-11-16T05:16:30.735Z,49.47
2022-11-16T05:19:53.878Z,44.40
2022-11-16T05:23:00.234Z,41.20
2022-11-16T05:26:12.044Z,51.78
2022-11-16T05:29:17.272Z,53.08
2022-11-16T05:32:23.747Z,50.13
2022-11-16T05:35:29.204Z,55.40
2022-11-16T05:38:34.233Z,54.67
2022-11-16T05:41:39.320Z,50.80
2022-11-16T05:44:44.861Z,55.28
2022-11-16T05:47:49.679Z,55.88
2022-11-16T05:51:01.297Z,54.90
2022-11-16T05:54:19.626Z,57.00
2022-11-16T05:57:24.791Z,55.63
2022-11-16T06:00:29.646Z,58.00
2022-11-16T06:03:36.210Z,61.35
2022-11-16T06:06:41.911Z,62.22
2022-11-16T06:09:47.066Z,59.15
2022-11-16T06:12:57.575Z,63.47
2022-11-16T06:16:03.481Z,68.07
2022-11-16T06:19:09.712Z,64.55
2022-11-16T06:22:14.840Z,67.78
2022-11-16T06:25:19.930Z,77.35
2022-11-16T06:28:25.517Z,72.45
2022-11-16T06:31:30.738Z,81.30
2022-11-16T06:34:38.498Z,83.40
2022-11-16T06:37:43.608Z,80.07
2022-11-16T06:40:56.729Z,79.60
2022-11-16T06:44:04.336Z,71.47
2022-11-16T06:47:13.844Z,73.47
2022-11-16T06:50:19.406Z,75.13
2022-11-16T06:53:29.203Z,74.40
2022-11-16T06:56:36.915Z,72.40
2022-11-16T06:59:42.281Z,66.88
2022-11-16T07:02:47.640Z,68.43
2022-11-16T07:05:55.661Z,67.25
2022-11-16T07:09:00.836Z,72.00
2022-11-16T07:12:10.585Z,74.40
2022-11-16T07:15:18.281Z,72.28
2022-11-16T07:18:24.822Z,85.95
2022-11-16T07:21:31.006Z,78.32
2022-11-16T07:24:37.849Z,81.97
2022-11-16T07:27:43.249Z,72.22
2022-11-16T07:30:49.867Z,79.55
2022-11-16T07:34:01.952Z,73.30
2022-11-16T07:37:25.496Z,69.20
2022-11-16T07:40:30.305Z,85.60
2022-11-16T07:43:36.240Z,78.10
2022-11-16T07:46:53.704Z,95.43
2022-11-16T07:49:58.932Z,67.60
2022-11-16T07:53:06.331Z,61.80
2022-11-16T07:56:12.715Z,57.90
2022-11-16T07:59:19.211Z,51.17
2022-11-16T08:02:24.201Z,48.45
2022-11-16T08:05:30.296Z,49.83
2022-11-16T08:08:35.491Z,67.63
2022-11-16T08:11:40.328Z,72.03
2022-11-16T08:14:45.088Z,70.10
2022-11-16T08:17:51.485Z,114.10
2022-11-16T08:20:59.215Z,110.25
2022-11-16T08:24:04.684Z,47.92
2022-11-16T08:27:15.359Z,44.45
2022-11-16T08:30:21.763Z,38.60
2022-11-16T08:33:29.259Z,37.75
2022-11-16T08:36:34.617Z,46.92
2022-11-16T08:39:40.857Z,47.25
2022-11-16T08:42:47.078Z,46.03
2022-11-16T08:45:56.164Z,49.13
2022-11-16T08:49:01.086Z,54.60
2022-11-16T08:52:06.303Z,67.70
2022-11-16T08:55:13.896Z,74.15
2022-11-16T08:58:19.237Z,83.63
2022-11-16T09:01:26.793Z,89.63
2022-11-16T09:04:36.698Z,93.68
2022-11-16T09:07:44.112Z,87.32
2022-11-16T09:10:49.097Z,91.05
2022-11-16T09:13:55.367Z,91.97
2022-11-16T09:17:00.123Z,99.25
2022-11-16T09:20:06.315Z,99.82
2022-11-16T09:23:11.464Z,95.85
2022-11-16T09:26:20.815Z,92.43
2022-11-16T09:29:27.659Z,84.57
2022-11-16T09:32:32.998Z,85.05
2022-11-16T09:35:38.128Z,89.47
2022-11-16T09:43:10.515Z,70.97
2022-11-16T09:46:47.583Z,69.03
2022-11-16T09:50:02.756Z,62.78
2022-11-16T09:53:45.147Z,63.90
2022-11-16T09:56:53.680Z,62.95
2022-11-16T10:00:05.357Z,58.35
2022-11-16T10:03:17.807Z,52.30
2022-11-16T10:06:29.257Z,44.10
2022-11-16T10:09:34.748Z,49.70
2022-11-16T10:12:51.918Z,46.08
2022-11-16T10:16:33.537Z,42.90
2022-11-16T10:19:54.232Z,44.80
2022-11-16T10:23:20.194Z,44.72
2022-11-16T10:26:39.101Z,40.63
2022-11-16T10:29:58.711Z,47.65
2022-11-16T10:33:12.714Z,44.58
2022-11-16T10:36:18.355Z,43.58
2022-11-16T10:39:24.458Z,45.08
2022-11-16T10:42:36.770Z,44.58
2022-11-16T10:46:12.798Z,47.75
2022-11-16T10:50:08.768Z,41.33
2022-11-16T10:53:25.251Z,43.15
2022-11-16T10:56:41.399Z,47.22
2022-11-16T10:59:50.016Z,39.58
2022-11-16T11:02:54.890Z,40.55
2022-11-16T11:06:00.037Z,42.53
2022-11-16T11:09:34.940Z,51.00
2022-11-16T11:13:11.253Z,59.20
2022-11-16T11:16:18.795Z,53.67
2022-11-16T11:19:28.140Z,57.13
2022-11-16T11:22:56.757Z,58.53
2022-11-16T11:26:01.520Z,44.33
2022-11-16T11:29:23.844Z,43.47
2022-11-16T11:32:38.947Z,36.47
2022-11-16T11:35:43.623Z,37.70
2022-11-16T11:38:59.179Z,34.92
2022-11-16T11:42:12.559Z,34.95
2022-11-16T11:45:17.861Z,36.17
2022-11-16T11:48:49.579Z,37.13
2022-11-16T11:51:57.774Z,37.47
2022-11-16T11:55:03.682Z,34.90
2022-11-16T11:58:16.971Z,45.75
2022-11-16T12:02:18.783Z,35.67
2022-11-16T12:05:48.472Z,38.13
2022-11-16T12:09:24.569Z,49.60
2022-11-16T12:12:53.535Z,53.38
2022-11-16T12:16:29.411Z,40.35
2022-11-16T12:20:05.467Z,43.13
2022-11-16T12:23:44.718Z,40.75
2022-11-16T12:27:05.607Z,43.72
2022-11-16T12:30:15.335Z,41.00
2022-11-16T12:33:38.315Z,37.80
2022-11-16T12:37:16.786Z,33.00
2022-11-16T12:40:45.694Z,35.13
2022-11-16T12:44:08.827Z,34.33
2022-11-16T12:47:37.471Z,34.35
2022-11-16T12:50:50.403Z,33.63
2022-11-16T12:54:20.156Z,30.48
2022-11-16T12:57:40.880Z,30.10
2022-11-16T13:01:10.797Z,27.75
2022-11-16T13:04:24.365Z,21.55
2022-11-16T13:07:46.136Z,20.90
2022-11-16T13:11:07.601Z,19.20
2022-11-16T13:14:38.158Z,15.98
2022-11-16T13:17:53.503Z,13.88
2022-11-16T13:21:12.234Z,14.48
2022-11-16T13:24:42.358Z,10.68
2022-11-16T13:27:59.999Z,13.38
2022-11-16T13:31:12.876Z,10.77
2022-11-16T13:34:32.225Z,9.30
2022-11-16T13:37:37.059Z,8.38
2022-11-16T13:40:42.129Z,8.23
2022-11-16T13:43:50.198Z,6.70
2022-11-16T13:47:04.843Z,5.47
2022-11-16T13:50:23.503Z,5.22
2022-11-16T13:57:34.136Z,4.78
2022-11-16T14:00:40.090Z,4.78
2022-11-16T14:03:52.375Z,5.78
2022-11-16T14:06:59.387Z,4.40
2022-11-16T14:10:05.793Z,6.80
2022-11-16T14:13:39.280Z,5.25
2022-11-16T14:16:50.595Z,4.03
2022-11-16T14:19:55.777Z,7.03
2022-11-16T14:23:36.055Z,4.45
2022-11-16T14:27:05.699Z,5.15
2022-11-16T14:30:31.059Z,5.93
2022-11-16T14:33:37.492Z,5.85
2022-11-16T14:36:45.548Z,6.13
2022-11-16T14:39:51.688Z,7.63
2022-11-16T14:43:19.994Z,6.38
2022-11-16T14:46:35.829Z,4.93
2022-11-16T14:49:41.637Z,5.68
2022-11-16T14:52:51.169Z,6.15
2022-11-16T14:56:12.121Z,6.47
2022-11-16T14:59:17.530Z,5.50
2022-11-16T15:02:26.817Z,5.38
2022-11-16T15:05:35.844Z,5.97
2022-11-16T15:08:48.056Z,8.27
2022-11-16T15:12:11.695Z,6.50
2022-11-16T15:15:19.279Z,6.38
2022-11-16T15:18:23.920Z,6.47
2022-11-16T15:21:29.292Z,7.45
2022-11-16T15:24:35.019Z,6.45
2022-11-16T15:27:41.540Z,7.57
2022-11-16T15:30:54.401Z,9.30
2022-11-16T15:33:59.220Z,9.15
2022-11-16T15:37:04.008Z,10.68
2022-11-16T15:40:09.686Z,9.45
2022-11-16T15:43:15.236Z,8.20
2022-11-16T15:46:20.092Z,10.77
2022-11-16T15:49:38.315Z,8.95
2022-11-16T15:52:47.091Z,10.25
2022-11-16T15:55:52.462Z,11.38
2022-11-16T15:59:01.347Z,11.73
2022-11-16T16:02:18.059Z,10.65
2022-11-16T16:05:43.627Z,11.60
2022-11-16T16:09:04.859Z,11.40
2022-11-16T16:12:24.672Z,12.20
2022-11-16T16:15:33.993Z,10.35
2022-11-16T16:18:43.371Z,10.38
2022-11-16T16:21:48.412Z,10.23
2022-11-16T16:24:53.626Z,12.60
2022-11-16T16:27:59.120Z,13.13
2022-11-16T16:31:03.920Z,16.83
2022-11-16T16:34:12.153Z,9.60
2022-11-16T16:37:17.368Z,15.65
2022-11-16T16:40:22.906Z,14.77
2022-11-16T16:43:27.954Z,11.02
2022-11-16T16:46:32.810Z,12.98
2022-11-16T16:49:37.897Z,14.80
2022-11-16T16:52:42.900Z,13.70
2022-11-16T16:55:48.913Z,13.43
2022-11-16T16:58:54.185Z,13.85
2022-11-16T17:01:59.836Z,11.75
2022-11-16T17:05:05.159Z,12.88
2022-11-16T17:08:10.182Z,13.45
2022-11-16T17:11:15.993Z,13.07
2022-11-16T17:14:24.355Z,13.02
2022-11-16T17:17:29.235Z,15.60
2022-11-16T17:20:34.302Z,13.68
2022-11-16T17:23:39.438Z,14.52
2022-11-16T17:26:48.205Z,16.38
2022-11-16T17:29:53.541Z,16.13
2022-11-16T17:32:58.449Z,15.48
2022-11-16T17:36:04.380Z,15.13
2022-11-16T17:39:09.254Z,15.15
2022-11-16T17:42:14.462Z,16.48
2022-11-16T17:45:19.261Z,13.35
2022-11-16T17:48:24.278Z,12.52
2022-11-16T17:51:31.712Z,14.90
2022-11-16T17:54:36.854Z,13.23
2022-11-16T17:57:41.859Z,10.82
2022-11-16T18:00:49.677Z,16.73
2022-11-16T18:03:54.641Z,13.85
2022-11-16T18:07:00.652Z,9.95
2022-11-16T18:10:06.104Z,12.20
2022-11-16T18:13:11.095Z,11.40
2022-11-16T18:16:21.371Z,16.67
2022-11-16T18:19:25.939Z,9.05
2022-11-16T18:22:30.791Z,10.60
2022-11-16T18:25:36.870Z,10.80
2022-11-16T18:28:43.848Z,8.88
2022-11-16T18:31:49.080Z,11.18
2022-11-16T18:34:54.077Z,9.82
2022-11-16T18:37:59.140Z,10.05
2022-11-16T18:41:07.732Z,9.45
2022-11-16T18:44:13.592Z,10.02
2022-11-16T18:47:18.497Z,11.68
2022-11-16T18:50:26.814Z,10.50
2022-11-16T18:53:33.345Z,8.75
2022-11-16T18:56:38.860Z,6.88
2022-11-16T18:59:43.862Z,5.55
2022-11-16T19:02:48.775Z,6.45
2022-11-16T19:06:09.271Z,5.47
2022-11-16T19:09:14.384Z,5.95
2022-11-16T19:12:19.286Z,7.15
2022-11-16T19:15:25.471Z,5.43
2022-11-16T19:18:30.374Z,4.97
2022-11-16T19:21:35.325Z,5.20
2022-11-16T19:24:40.377Z,4.25
2022-11-16T19:27:45.354Z,6.40
2022-11-16T19:30:50.287Z,4.65
2022-11-16T19:34:00.067Z,4.35
2022-11-16T19:37:05.212Z,5.10
2022-11-16T19:40:10.917Z,5.82
2022-11-16T19:43:16.231Z,4.32
2022-11-16T19:46:21.527Z,3.72
2022-11-16T19:49:26.459Z,4.15
2022-11-16T19:52:31.387Z,4.43
2022-11-16T19:55:36.144Z,3.38
2022-11-16T19:58:42.033Z,6.20
2022-11-16T20:01:46.939Z,6.75
2022-11-16T20:04:51.932Z,4.28
2022-11-16T20:07:56.754Z,3.88
2022-11-16T20:11:01.863Z,3.97
2022-11-16T20:14:10.231Z,4.60
2022-11-16T20:17:15.179Z,5.47
2022-11-16T20:20:20.433Z,5.82
2022-11-16T20:23:25.223Z,5.93
2022-11-16T20:26:32.155Z,5.78
2022-11-16T20:29:37.237Z,4.68
2022-11-16T20:32:42.352Z,4.57
2022-11-16T20:35:47.318Z,4.50
2022-11-16T20:38:52.870Z,3.40
2022-11-16T20:41:57.627Z,3.47
2022-11-16T20:45:02.993Z,4.43
2022-11-16T20:48:07.739Z,5.43
2022-11-16T20:51:16.797Z,4.93
2022-11-16T20:54:22.013Z,6.15
2022-11-16T20:57:27.181Z,3.58
2022-11-16T21:00:32.174Z,3.50
2022-11-16T21:03:37.498Z,4.95
2022-11-16T21:06:42.562Z,3.55
2022-11-16T21:10:05.714Z,3.58
2022-11-16T21:13:37.507Z,3.55
2022-11-16T21:16:42.662Z,2.70
2022-11-16T21:20:12.182Z,3.00
2022-11-16T21:23:12.752Z,2.78
2022-11-16T21:26:21.146Z,3.75
2022-11-16T21:29:27.188Z,6.53
2022-11-16T21:32:32.632Z,2.92
2022-11-16T21:35:37.837Z,2.97
2022-11-16T21:38:43.179Z,3.38
2022-11-16T21:41:48.193Z,3.70
2022-11-16T21:44:52.956Z,3.83
2022-11-16T21:47:58.151Z,2.78
2022-11-16T21:51:12.327Z,2.90
2022-11-16T21:54:17.047Z,3.35
2022-11-16T21:57:22.526Z,5.05
2022-11-16T22:00:27.827Z,3.40
2022-11-16T22:03:33.497Z,2.58
2022-11-16T22:06:57.250Z,3.17
2022-11-16T22:10:08.333Z,3.10
2022-11-16T22:13:13.243Z,2.95
2022-11-16T22:16:20.002Z,2.70
2022-11-16T22:19:24.691Z,2.70
2022-11-16T22:22:29.674Z,3.30
2022-11-16T22:25:34.537Z,1.98
2022-11-16T22:28:39.713Z,2.70
2022-11-16T22:31:44.693Z,3.50
2022-11-16T22:34:51.315Z,6.00
2022-11-16T22:37:56.271Z,3.72
2022-11-16T22:41:01.254Z,3.88
2022-11-16T22:44:06.072Z,2.67
2022-11-16T22:47:10.987Z,4.40
2022-11-16T22:50:15.833Z,2.72
2022-11-16T22:53:20.746Z,3.13
2022-11-16T22:56:25.863Z,5.35
2022-11-16T22:59:30.564Z,3.13
2022-11-16T23:02:35.737Z,3.20
2022-11-16T23:05:40.669Z,4.45
2022-11-16T23:08:45.474Z,3.67
2022-11-16T23:12:08.588Z,4.00
2022-11-16T23:15:32.480Z,4.15
2022-11-16T23:18:37.480Z,4.15
2022-11-16T23:22:01.052Z,4.32
2022-11-16T23:25:26.927Z,4.00
2022-11-16T23:28:31.589Z,4.25
2022-11-16T23:31:37.681Z,4.40
2022-11-16T23:34:42.979Z,3.67
2022-11-16T23:37:55.467Z,4.85
2022-11-16T23:41:20.034Z,4.30
2022-11-16T23:44:24.613Z,4.18
2022-11-16T23:47:29.412Z,3.47
2022-11-16T23:50:34.764Z,3.95
2022-11-16T23:53:39.792Z,6.07
2022-11-16T23:56:44.826Z,4.60
2022-11-16T23:59:49.580Z,9.98
